HKMO/MBA METAR and TAF weather

Enter ICAO airport designator
Station Type Date Time Source
HKMO METAR 2020/06/02 15:00 UTC NOAA

HKMO 021500Z 16007KT 5000 RA BKN021 OVC080 25/23 Q1015 BECMG 9000 -RA


Station Type Date Time Source
HKMO Decoded METAR 2020/06/02 15:00 UTC NOAA

Mombasa, Kenya (HKMO) 04-02S 039-37E 55M
Jun 02, 2020 - 11:00 AM EDT / 2020.06.02 1500 UTC
Wind: from the SSE (160 degrees) at 8 MPH (7 KT):0
Visibility: 3 mile(s):0
Sky conditions: overcast
Weather: rain
Temperature: 77 F (25 C)
Dew Point: 73 F (23 C)
Relative Humidity: 88%
Pressure (altimeter): 29.97 in. Hg (1015 hPa)
ob: HKMO 021500Z 16007KT 5000 RA BKN021 OVC080 25/23 Q1015 BECMG 9000 -RA
cycle: 15

Station Type Date Time Source
HKMO TAF 2020/06/02 12:21 UTC NOAA

TAF TAF HKMO 021100Z 0212/0318 21010KT 9999 SCT022 BKN080
BECMG 0218/0221 SCT022
TEMPO 0300/0306 -RA BKN020 BKN080
BECMG 0309/0312 18015KT SCT023 BKN080

Example: see airport list